sensor_id;sensor_type;location;lat;lon;timestamp;P1;durP1;ratioP1;P2;durP2;ratioP2
48268;SDS011;34088;52.232;5.196;2023-04-03T00:01:05;4.35;;;1.83;;
48268;SDS011;34088;52.232;5.196;2023-04-03T00:03:30;5.82;;;2.00;;
48268;SDS011;34088;52.232;5.196;2023-04-03T00:08:22;4.80;;;1.92;;
48268;SDS011;34088;52.232;5.196;2023-04-03T00:13:13;3.10;;;1.88;;
48268;SDS011;34088;52.232;5.196;2023-04-03T00:15:39;3.28;;;2.10;;
48268;SDS011;34088;52.232;5.196;2023-04-03T00:33:14;4.03;;;2.27;;
48268;SDS011;34088;52.232;5.196;2023-04-03T00:35:40;4.53;;;2.00;;
48268;SDS011;34088;52.232;5.196;2023-04-03T00:38:06;6.65;;;2.20;;
48268;SDS011;34088;52.232;5.196;2023-04-03T00:43:10;4.93;;;1.80;;
48268;SDS011;34088;52.232;5.196;2023-04-03T00:45:39;4.22;;;1.73;;
48268;SDS011;34088;52.232;5.196;2023-04-03T00:48:07;4.03;;;2.03;;
48268;SDS011;34088;52.232;5.196;2023-04-03T00:50:36;6.55;;;2.17;;
48268;SDS011;34088;52.232;5.196;2023-04-03T00:53:06;4.35;;;2.13;;
48268;SDS011;34088;52.232;5.196;2023-04-03T00:55:35;3.60;;;1.92;;
48268;SDS011;34088;52.232;5.196;2023-04-03T00:58:02;3.35;;;1.92;;
48268;SDS011;34088;52.232;5.196;2023-04-03T01:02:53;3.80;;;2.10;;
48268;SDS011;34088;52.232;5.196;2023-04-03T01:07:44;5.38;;;2.05;;
48268;SDS011;34088;52.232;5.196;2023-04-03T01:10:11;4.95;;;1.95;;
48268;SDS011;34088;52.232;5.196;2023-04-03T01:12:40;4.43;;;1.88;;
48268;SDS011;34088;52.232;5.196;2023-04-03T01:22:48;4.78;;;2.25;;
48268;SDS011;34088;52.232;5.196;2023-04-03T01:25:21;4.55;;;2.25;;
48268;SDS011;34088;52.232;5.196;2023-04-03T01:30:12;4.80;;;1.95;;
48268;SDS011;34088;52.232;5.196;2023-04-03T01:32:39;5.60;;;2.22;;
48268;SDS011;34088;52.232;5.196;2023-04-03T01:37:32;6.07;;;2.15;;
48268;SDS011;34088;52.232;5.196;2023-04-03T01:42:23;8.00;;;2.22;;
48268;SDS011;34088;52.232;5.196;2023-04-03T01:44:48;7.40;;;2.33;;
48268;SDS011;34088;52.232;5.196;2023-04-03T01:49:39;4.28;;;2.20;;
48268;SDS011;34088;52.232;5.196;2023-04-03T01:52:05;6.60;;;2.08;;
48268;SDS011;34088;52.232;5.196;2023-04-03T01:56:56;5.70;;;2.38;;
48268;SDS011;34088;52.232;5.196;2023-04-03T02:01:47;5.55;;;2.22;;
48268;SDS011;34088;52.232;5.196;2023-04-03T02:04:12;5.25;;;1.85;;
48268;SDS011;34088;52.232;5.196;2023-04-03T02:09:04;6.65;;;2.10;;
48268;SDS011;34088;52.232;5.196;2023-04-03T02:11:30;6.47;;;2.42;;
48268;SDS011;34088;52.232;5.196;2023-04-03T02:16:21;5.50;;;2.33;;
48268;SDS011;34088;52.232;5.196;2023-04-03T02:21:12;8.35;;;2.30;;
48268;SDS011;34088;52.232;5.196;2023-04-03T02:26:04;6.03;;;2.33;;
48268;SDS011;34088;52.232;5.196;2023-04-03T02:28:31;5.68;;;2.13;;
48268;SDS011;34088;52.232;5.196;2023-04-03T02:33:22;5.35;;;2.10;;
48268;SDS011;34088;52.232;5.196;2023-04-03T02:35:51;8.48;;;2.42;;
48268;SDS011;34088;52.232;5.196;2023-04-03T02:38:18;5.30;;;2.05;;
48268;SDS011;34088;52.232;5.196;2023-04-03T02:43:09;3.63;;;2.10;;
48268;SDS011;34088;52.232;5.196;2023-04-03T02:45:35;7.30;;;2.65;;
48268;SDS011;34088;52.232;5.196;2023-04-03T02:50:26;6.57;;;2.58;;
48268;SDS011;34088;52.232;5.196;2023-04-03T02:55:17;8.95;;;2.80;;
48268;SDS011;34088;52.232;5.196;2023-04-03T03:00:08;7.65;;;2.70;;
48268;SDS011;34088;52.232;5.196;2023-04-03T03:02:34;6.78;;;2.63;;
48268;SDS011;34088;52.232;5.196;2023-04-03T03:07:26;5.30;;;2.20;;
48268;SDS011;34088;52.232;5.196;2023-04-03T03:09:51;7.32;;;2.45;;
48268;SDS011;34088;52.232;5.196;2023-04-03T03:12:17;7.38;;;2.55;;
48268;SDS011;34088;52.232;5.196;2023-04-03T03:14:46;5.68;;;2.65;;
48268;SDS011;34088;52.232;5.196;2023-04-03T03:17:12;6.93;;;2.58;;
48268;SDS011;34088;52.232;5.196;2023-04-03T03:22:04;9.55;;;2.80;;
48268;SDS011;34088;52.232;5.196;2023-04-03T03:24:29;6.35;;;2.42;;
48268;SDS011;34088;52.232;5.196;2023-04-03T03:29:20;9.13;;;2.90;;
48268;SDS011;34088;52.232;5.196;2023-04-03T03:31:46;8.00;;;2.85;;
48268;SDS011;34088;52.232;5.196;2023-04-03T03:36:37;9.70;;;3.05;;
48268;SDS011;34088;52.232;5.196;2023-04-03T03:39:03;8.73;;;2.80;;
48268;SDS011;34088;52.232;5.196;2023-04-03T03:43:54;6.80;;;2.38;;
48268;SDS011;34088;52.232;5.196;2023-04-03T03:46:20;6.70;;;2.55;;
48268;SDS011;34088;52.232;5.196;2023-04-03T03:48:45;6.25;;;2.35;;
48268;SDS011;34088;52.232;5.196;2023-04-03T03:53:36;6.72;;;2.80;;
48268;SDS011;34088;52.232;5.196;2023-04-03T03:56:03;7.97;;;2.70;;
48268;SDS011;34088;52.232;5.196;2023-04-03T03:58:29;11.02;;;2.97;;
48268;SDS011;34088;52.232;5.196;2023-04-03T04:03:20;7.63;;;2.90;;
48268;SDS011;34088;52.232;5.196;2023-04-03T04:08:11;7.32;;;2.95;;
48268;SDS011;34088;52.232;5.196;2023-04-03T04:13:03;7.55;;;2.90;;
48268;SDS011;34088;52.232;5.196;2023-04-03T04:15:28;8.10;;;3.20;;
48268;SDS011;34088;52.232;5.196;2023-04-03T04:20:20;12.25;;;3.20;;
48268;SDS011;34088;52.232;5.196;2023-04-03T04:22:45;10.05;;;3.17;;
48268;SDS011;34088;52.232;5.196;2023-04-03T04:25:11;7.25;;;3.08;;
48268;SDS011;34088;52.232;5.196;2023-04-03T04:30:03;9.18;;;3.20;;
48268;SDS011;34088;52.232;5.196;2023-04-03T04:32:29;9.30;;;4.20;;
48268;SDS011;34088;52.232;5.196;2023-04-03T04:37:20;5.97;;;2.72;;
48268;SDS011;34088;52.232;5.196;2023-04-03T04:42:11;8.45;;;2.80;;
48268;SDS011;34088;52.232;5.196;2023-04-03T04:44:38;7.22;;;3.33;;
48268;SDS011;34088;52.232;5.196;2023-04-03T04:47:04;7.15;;;3.00;;
48268;SDS011;34088;52.232;5.196;2023-04-03T04:51:55;7.03;;;3.40;;
48268;SDS011;34088;52.232;5.196;2023-04-03T04:54:21;10.48;;;3.35;;
48268;SDS011;34088;52.232;5.196;2023-04-03T04:56:46;7.15;;;3.45;;
48268;SDS011;34088;52.232;5.196;2023-04-03T05:01:37;9.18;;;2.97;;
48268;SDS011;34088;52.232;5.196;2023-04-03T05:04:03;9.55;;;3.67;;
48268;SDS011;34088;52.232;5.196;2023-04-03T05:06:29;7.78;;;3.40;;
48268;SDS011;34088;52.232;5.196;2023-04-03T05:08:56;8.13;;;3.30;;
48268;SDS011;34088;52.232;5.196;2023-04-03T05:13:48;8.10;;;3.53;;
48268;SDS011;34088;52.232;5.196;2023-04-03T05:16:13;10.13;;;3.92;;
48268;SDS011;34088;52.232;5.196;2023-04-03T05:18:39;10.00;;;3.85;;
48268;SDS011;34088;52.232;5.196;2023-04-03T05:23:30;8.32;;;3.72;;
48268;SDS011;34088;52.232;5.196;2023-04-03T05:25:55;6.90;;;3.55;;
48268;SDS011;34088;52.232;5.196;2023-04-03T05:30:52;7.05;;;3.17;;
48268;SDS011;34088;52.232;5.196;2023-04-03T05:33:22;7.53;;;3.30;;
48268;SDS011;34088;52.232;5.196;2023-04-03T05:35:47;7.97;;;3.28;;
48268;SDS011;34088;52.232;5.196;2023-04-03T05:40:39;9.52;;;3.75;;
48268;SDS011;34088;52.232;5.196;2023-04-03T05:43:04;9.30;;;3.13;;
48268;SDS011;34088;52.232;5.196;2023-04-03T05:47:55;8.15;;;3.47;;
48268;SDS011;34088;52.232;5.196;2023-04-03T05:50:21;8.68;;;3.75;;
48268;SDS011;34088;52.232;5.196;2023-04-03T05:52:47;8.95;;;3.70;;
48268;SDS011;34088;52.232;5.196;2023-04-03T05:55:14;8.52;;;3.75;;
48268;SDS011;34088;52.232;5.196;2023-04-03T06:00:06;7.03;;;3.25;;
48268;SDS011;34088;52.232;5.196;2023-04-03T06:02:33;6.97;;;3.65;;
48268;SDS011;34088;52.232;5.196;2023-04-03T06:07:24;12.10;;;3.70;;
48268;SDS011;34088;52.232;5.196;2023-04-03T06:09:53;11.20;;;4.10;;
48268;SDS011;34088;52.232;5.196;2023-04-03T06:12:20;11.32;;;3.47;;
48268;SDS011;34088;52.232;5.196;2023-04-03T06:17:12;10.03;;;3.63;;
48268;SDS011;34088;52.232;5.196;2023-04-03T06:19:39;7.10;;;3.55;;
48268;SDS011;34088;52.232;5.196;2023-04-03T06:24:30;8.57;;;3.45;;
48268;SDS011;34088;52.232;5.196;2023-04-03T06:26:56;8.07;;;3.35;;
48268;SDS011;34088;52.232;5.196;2023-04-03T06:29:22;8.43;;;4.10;;
48268;SDS011;34088;52.232;5.196;2023-04-03T06:31:49;8.32;;;3.40;;
48268;SDS011;34088;52.232;5.196;2023-04-03T06:34:15;7.82;;;2.88;;
48268;SDS011;34088;52.232;5.196;2023-04-03T06:36:41;10.63;;;3.85;;
48268;SDS011;34088;52.232;5.196;2023-04-03T06:39:09;8.85;;;3.55;;
48268;SDS011;34088;52.232;5.196;2023-04-03T06:41:42;6.80;;;3.15;;
48268;SDS011;34088;52.232;5.196;2023-04-03T06:46:36;8.82;;;3.00;;
48268;SDS011;34088;52.232;5.196;2023-04-03T06:49:02;11.82;;;4.03;;
48268;SDS011;34088;52.232;5.196;2023-04-03T06:51:28;8.65;;;3.33;;
48268;SDS011;34088;52.232;5.196;2023-04-03T06:53:56;13.10;;;3.00;;
48268;SDS011;34088;52.232;5.196;2023-04-03T06:56:22;9.68;;;3.22;;
48268;SDS011;34088;52.232;5.196;2023-04-03T07:01:15;10.40;;;3.30;;
48268;SDS011;34088;52.232;5.196;2023-04-03T07:03:42;5.63;;;2.50;;
48268;SDS011;34088;52.232;5.196;2023-04-03T07:08:35;6.78;;;2.90;;
48268;SDS011;34088;52.232;5.196;2023-04-03T07:13:26;10.15;;;2.90;;
48268;SDS011;34088;52.232;5.196;2023-04-03T07:18:17;8.13;;;3.30;;
48268;SDS011;34088;52.232;5.196;2023-04-03T07:20:43;7.85;;;3.67;;
48268;SDS011;34088;52.232;5.196;2023-04-03T07:25:34;7.97;;;2.88;;
48268;SDS011;34088;52.232;5.196;2023-04-03T07:30:25;9.18;;;3.08;;
48268;SDS011;34088;52.232;5.196;2023-04-03T07:35:16;11.30;;;3.53;;
48268;SDS011;34088;52.232;5.196;2023-04-03T07:37:42;11.00;;;3.65;;
48268;SDS011;34088;52.232;5.196;2023-04-03T07:42:34;9.13;;;2.55;;
48268;SDS011;34088;52.232;5.196;2023-04-03T07:45:00;10.40;;;2.72;;
48268;SDS011;34088;52.232;5.196;2023-04-03T07:47:26;10.52;;;2.83;;
48268;SDS011;34088;52.232;5.196;2023-04-03T07:52:17;8.10;;;2.80;;
48268;SDS011;34088;52.232;5.196;2023-04-03T07:54:43;5.95;;;2.65;;
48268;SDS011;34088;52.232;5.196;2023-04-03T07:57:09;8.52;;;2.95;;
48268;SDS011;34088;52.232;5.196;2023-04-03T08:02:00;6.78;;;2.40;;
48268;SDS011;34088;52.232;5.196;2023-04-03T08:06:52;5.90;;;2.55;;
48268;SDS011;34088;52.232;5.196;2023-04-03T08:11:44;5.28;;;2.00;;
48268;SDS011;34088;52.232;5.196;2023-04-03T08:14:10;7.25;;;2.72;;
48268;SDS011;34088;52.232;5.196;2023-04-03T08:16:41;7.90;;;2.20;;
48268;SDS011;34088;52.232;5.196;2023-04-03T08:19:07;5.50;;;2.40;;
48268;SDS011;34088;52.232;5.196;2023-04-03T08:21:33;6.50;;;2.70;;
48268;SDS011;34088;52.232;5.196;2023-04-03T08:23:58;8.77;;;2.70;;
48268;SDS011;34088;52.232;5.196;2023-04-03T08:26:24;4.85;;;2.15;;
48268;SDS011;34088;52.232;5.196;2023-04-03T08:28:51;5.72;;;1.95;;
48268;SDS011;34088;52.232;5.196;2023-04-03T08:31:18;6.68;;;1.90;;
48268;SDS011;34088;52.232;5.196;2023-04-03T08:33:44;5.50;;;1.83;;
48268;SDS011;34088;52.232;5.196;2023-04-03T08:36:21;6.45;;;1.70;;
48268;SDS011;34088;52.232;5.196;2023-04-03T08:38:49;4.72;;;1.70;;
48268;SDS011;34088;52.232;5.196;2023-04-03T08:41:16;5.88;;;1.90;;
48268;SDS011;34088;52.232;5.196;2023-04-03T08:44:12;6.53;;;2.55;;
48268;SDS011;34088;52.232;5.196;2023-04-03T08:50:19;5.97;;;1.63;;
48268;SDS011;34088;52.232;5.196;2023-04-03T08:52:36;7.00;;;1.98;;
48268;SDS011;34088;52.232;5.196;2023-04-03T08:55:06;8.20;;;1.80;;
48268;SDS011;34088;52.232;5.196;2023-04-03T08:57:40;6.65;;;2.10;;
48268;SDS011;34088;52.232;5.196;2023-04-03T09:00:18;6.00;;;1.77;;
48268;SDS011;34088;52.232;5.196;2023-04-03T09:02:53;3.70;;;1.52;;
48268;SDS011;34088;52.232;5.196;2023-04-03T09:05:20;3.13;;;1.40;;
48268;SDS011;34088;52.232;5.196;2023-04-03T09:08:28;4.03;;;1.55;;
48268;SDS011;34088;52.232;5.196;2023-04-03T09:11:03;3.72;;;1.40;;
48268;SDS011;34088;52.232;5.196;2023-04-03T09:13:36;5.05;;;1.73;;
48268;SDS011;34088;52.232;5.196;2023-04-03T09:19:41;4.65;;;1.50;;
48268;SDS011;34088;52.232;5.196;2023-04-03T09:22:28;4.60;;;1.40;;
48268;SDS011;34088;52.232;5.196;2023-04-03T09:25:40;2.58;;;1.40;;
48268;SDS011;34088;52.232;5.196;2023-04-03T09:27:54;3.45;;;1.05;;
48268;SDS011;34088;52.232;5.196;2023-04-03T09:30:22;5.35;;;1.50;;
48268;SDS011;34088;52.232;5.196;2023-04-03T09:32:50;2.00;;;1.00;;
48268;SDS011;34088;52.232;5.196;2023-04-03T09:35:19;2.75;;;1.00;;
48268;SDS011;34088;52.232;5.196;2023-04-03T09:37:53;3.45;;;1.30;;
48268;SDS011;34088;52.232;5.196;2023-04-03T09:42:51;3.75;;;1.20;;
48268;SDS011;34088;52.232;5.196;2023-04-03T09:45:31;2.60;;;1.30;;
48268;SDS011;34088;52.232;5.196;2023-04-03T09:48:12;2.22;;;1.00;;
48268;SDS011;34088;52.232;5.196;2023-04-03T09:50:53;3.30;;;1.00;;
48268;SDS011;34088;52.232;5.196;2023-04-03T09:53:39;5.40;;;1.20;;
48268;SDS011;34088;52.232;5.196;2023-04-03T09:58:42;2.90;;;1.08;;
48268;SDS011;34088;52.232;5.196;2023-04-03T10:06:39;5.53;;;1.30;;
48268;SDS011;34088;52.232;5.196;2023-04-03T10:14:36;3.67;;;1.25;;
48268;SDS011;34088;52.232;5.196;2023-04-03T10:19:39;2.90;;;1.00;;
48268;SDS011;34088;52.232;5.196;2023-04-03T10:24:52;3.85;;;0.70;;
48268;SDS011;34088;52.232;5.196;2023-04-03T10:32:42;2.63;;;0.68;;
48268;SDS011;34088;52.232;5.196;2023-04-03T10:41:04;36.97;;;4.10;;
48268;SDS011;34088;52.232;5.196;2023-04-03T10:51:40;2.05;;;0.70;;
48268;SDS011;34088;52.232;5.196;2023-04-03T10:54:12;2.33;;;1.00;;
48268;SDS011;34088;52.232;5.196;2023-04-03T10:57:03;1.67;;;0.80;;
48268;SDS011;34088;52.232;5.196;2023-04-03T11:02:26;1.33;;;0.80;;
48268;SDS011;34088;52.232;5.196;2023-04-03T11:04:59;2.80;;;0.70;;
48268;SDS011;34088;52.232;5.196;2023-04-03T11:07:48;1.45;;;0.80;;
48268;SDS011;34088;52.232;5.196;2023-04-03T11:13:02;3.75;;;1.02;;
48268;SDS011;34088;52.232;5.196;2023-04-03T11:15:35;2.95;;;1.00;;
48268;SDS011;34088;52.232;5.196;2023-04-03T11:18:11;3.53;;;0.80;;
48268;SDS011;34088;52.232;5.196;2023-04-03T11:20:39;2.42;;;0.70;;
48268;SDS011;34088;52.232;5.196;2023-04-03T11:25:47;2.17;;;0.70;;
48268;SDS011;34088;52.232;5.196;2023-04-03T11:28:17;1.00;;;0.60;;
48268;SDS011;34088;52.232;5.196;2023-04-03T11:30:45;2.22;;;0.90;;
48268;SDS011;34088;52.232;5.196;2023-04-03T11:35:56;2.15;;;0.90;;
48268;SDS011;34088;52.232;5.196;2023-04-03T11:38:35;2.35;;;0.70;;
48268;SDS011;34088;52.232;5.196;2023-04-03T11:41:04;4.22;;;0.90;;
48268;SDS011;34088;52.232;5.196;2023-04-03T11:43:37;1.77;;;0.63;;
48268;SDS011;34088;52.232;5.196;2023-04-03T11:46:21;2.50;;;0.80;;
48268;SDS011;34088;52.232;5.196;2023-04-03T11:48:48;1.92;;;0.85;;
48268;SDS011;34088;52.232;5.196;2023-04-03T11:53:45;2.08;;;0.90;;
48268;SDS011;34088;52.232;5.196;2023-04-03T12:01:51;3.75;;;1.00;;
48268;SDS011;34088;52.232;5.196;2023-04-03T12:04:23;2.75;;;1.05;;
48268;SDS011;34088;52.232;5.196;2023-04-03T12:11:56;2.47;;;0.85;;
48268;SDS011;34088;52.232;5.196;2023-04-03T12:14:23;2.47;;;0.90;;
48268;SDS011;34088;52.232;5.196;2023-04-03T12:16:53;3.70;;;1.00;;
48268;SDS011;34088;52.232;5.196;2023-04-03T12:19:35;2.67;;;1.10;;
48268;SDS011;34088;52.232;5.196;2023-04-03T12:24:37;3.53;;;1.00;;
48268;SDS011;34088;52.232;5.196;2023-04-03T12:27:20;3.33;;;0.80;;
48268;SDS011;34088;52.232;5.196;2023-04-03T12:29:54;1.98;;;0.73;;
48268;SDS011;34088;52.232;5.196;2023-04-03T12:40:48;3.90;;;1.10;;
48268;SDS011;34088;52.232;5.196;2023-04-03T12:43:29;1.63;;;0.98;;
48268;SDS011;34088;52.232;5.196;2023-04-03T12:51:13;1.73;;;0.75;;
48268;SDS011;34088;52.232;5.196;2023-04-03T12:53:40;5.20;;;1.10;;
48268;SDS011;34088;52.232;5.196;2023-04-03T12:58:53;2.22;;;1.02;;
48268;SDS011;34088;52.232;5.196;2023-04-03T13:01:23;1.60;;;0.98;;
48268;SDS011;34088;52.232;5.196;2023-04-03T13:03:52;2.30;;;1.13;;
48268;SDS011;34088;52.232;5.196;2023-04-03T13:06:28;3.00;;;1.10;;
48268;SDS011;34088;52.232;5.196;2023-04-03T13:08:58;2.33;;;1.13;;
48268;SDS011;34088;52.232;5.196;2023-04-03T13:11:25;3.90;;;1.20;;
48268;SDS011;34088;52.232;5.196;2023-04-03T13:14:12;2.47;;;1.10;;
48268;SDS011;34088;52.232;5.196;2023-04-03T13:16:40;3.47;;;0.90;;
48268;SDS011;34088;52.232;5.196;2023-04-03T13:19:14;4.15;;;1.10;;
48268;SDS011;34088;52.232;5.196;2023-04-03T13:21:41;2.45;;;1.05;;
48268;SDS011;34088;52.232;5.196;2023-04-03T13:24:09;3.55;;;1.30;;
48268;SDS011;34088;52.232;5.196;2023-04-03T13:26:34;2.03;;;1.10;;
48268;SDS011;34088;52.232;5.196;2023-04-03T13:31:44;3.88;;;1.20;;
48268;SDS011;34088;52.232;5.196;2023-04-03T13:36:39;2.83;;;1.20;;
48268;SDS011;34088;52.232;5.196;2023-04-03T13:41:47;2.17;;;0.80;;
48268;SDS011;34088;52.232;5.196;2023-04-03T13:46:46;2.05;;;1.02;;
48268;SDS011;34088;52.232;5.196;2023-04-03T13:51:45;1.92;;;0.90;;
48268;SDS011;34088;52.232;5.196;2023-04-03T13:54:22;2.47;;;1.08;;
48268;SDS011;34088;52.232;5.196;2023-04-03T13:56:53;4.28;;;1.20;;
48268;SDS011;34088;52.232;5.196;2023-04-03T13:59:24;2.17;;;1.05;;
48268;SDS011;34088;52.232;5.196;2023-04-03T14:04:32;2.78;;;1.35;;
48268;SDS011;34088;52.232;5.196;2023-04-03T14:07:21;2.92;;;1.10;;
48268;SDS011;34088;52.232;5.196;2023-04-03T14:09:47;2.55;;;1.33;;
48268;SDS011;34088;52.232;5.196;2023-04-03T14:12:25;2.58;;;1.17;;
48268;SDS011;34088;52.232;5.196;2023-04-03T14:15:03;3.47;;;1.17;;
48268;SDS011;34088;52.232;5.196;2023-04-03T14:17:30;3.42;;;1.42;;
48268;SDS011;34088;52.232;5.196;2023-04-03T14:19:57;5.25;;;1.50;;
48268;SDS011;34088;52.232;5.196;2023-04-03T14:24:59;2.97;;;1.20;;
48268;SDS011;34088;52.232;5.196;2023-04-03T14:27:33;3.13;;;1.15;;
48268;SDS011;34088;52.232;5.196;2023-04-03T14:30:05;2.95;;;1.70;;
48268;SDS011;34088;52.232;5.196;2023-04-03T14:32:33;2.92;;;1.40;;
48268;SDS011;34088;52.232;5.196;2023-04-03T14:34:58;4.20;;;1.40;;
48268;SDS011;34088;52.232;5.196;2023-04-03T14:37:27;3.20;;;1.40;;
48268;SDS011;34088;52.232;5.196;2023-04-03T14:39:55;3.00;;;1.33;;
48268;SDS011;34088;52.232;5.196;2023-04-03T14:42:22;2.17;;;1.30;;
48268;SDS011;34088;52.232;5.196;2023-04-03T14:44:53;4.22;;;1.58;;
48268;SDS011;34088;52.232;5.196;2023-04-03T14:47:20;5.10;;;1.38;;
48268;SDS011;34088;52.232;5.196;2023-04-03T14:49:48;3.45;;;1.65;;
48268;SDS011;34088;52.232;5.196;2023-04-03T14:52:18;3.90;;;1.40;;
48268;SDS011;34088;52.232;5.196;2023-04-03T14:54:55;3.78;;;1.42;;
48268;SDS011;34088;52.232;5.196;2023-04-03T14:57:21;3.17;;;1.63;;
48268;SDS011;34088;52.232;5.196;2023-04-03T14:59:50;1.98;;;1.00;;
48268;SDS011;34088;52.232;5.196;2023-04-03T15:02:26;4.25;;;1.40;;
48268;SDS011;34088;52.232;5.196;2023-04-03T15:04:53;5.00;;;1.70;;
48268;SDS011;34088;52.232;5.196;2023-04-03T15:07:22;5.38;;;1.67;;
48268;SDS011;34088;52.232;5.196;2023-04-03T15:09:49;4.80;;;1.50;;
48268;SDS011;34088;52.232;5.196;2023-04-03T15:12:15;3.13;;;1.38;;
48268;SDS011;34088;52.232;5.196;2023-04-03T15:14:40;2.70;;;1.10;;
48268;SDS011;34088;52.232;5.196;2023-04-03T15:17:06;3.45;;;1.35;;
48268;SDS011;34088;52.232;5.196;2023-04-03T15:19:39;3.50;;;1.35;;
48268;SDS011;34088;52.232;5.196;2023-04-03T15:22:05;3.22;;;1.30;;
48268;SDS011;34088;52.232;5.196;2023-04-03T15:26:57;5.23;;;1.50;;
48268;SDS011;34088;52.232;5.196;2023-04-03T15:29:22;5.30;;;1.63;;
48268;SDS011;34088;52.232;5.196;2023-04-03T15:31:48;4.00;;;1.40;;
48268;SDS011;34088;52.232;5.196;2023-04-03T15:34:14;3.83;;;1.50;;
48268;SDS011;34088;52.232;5.196;2023-04-03T15:36:41;2.55;;;1.25;;
48268;SDS011;34088;52.232;5.196;2023-04-03T15:39:06;3.55;;;1.40;;
48268;SDS011;34088;52.232;5.196;2023-04-03T15:41:32;5.20;;;1.90;;
48268;SDS011;34088;52.232;5.196;2023-04-03T15:43:57;3.78;;;1.42;;
48268;SDS011;34088;52.232;5.196;2023-04-03T15:46:23;5.22;;;1.63;;
48268;SDS011;34088;52.232;5.196;2023-04-03T15:48:48;3.10;;;1.58;;
48268;SDS011;34088;52.232;5.196;2023-04-03T15:51:14;3.33;;;1.60;;
48268;SDS011;34088;52.232;5.196;2023-04-03T15:53:40;5.63;;;1.63;;
48268;SDS011;34088;52.232;5.196;2023-04-03T15:56:05;4.22;;;1.50;;
48268;SDS011;34088;52.232;5.196;2023-04-03T15:58:33;3.80;;;1.45;;
48268;SDS011;34088;52.232;5.196;2023-04-03T16:00:58;5.57;;;1.60;;
48268;SDS011;34088;52.232;5.196;2023-04-03T16:03:24;7.22;;;2.00;;
48268;SDS011;34088;52.232;5.196;2023-04-03T16:05:50;4.20;;;1.63;;
48268;SDS011;34088;52.232;5.196;2023-04-03T16:08:15;2.80;;;1.40;;
48268;SDS011;34088;52.232;5.196;2023-04-03T16:10:42;3.13;;;1.35;;
48268;SDS011;34088;52.232;5.196;2023-04-03T16:13:10;4.72;;;1.45;;
48268;SDS011;34088;52.232;5.196;2023-04-03T16:15:36;4.57;;;1.60;;
48268;SDS011;34088;52.232;5.196;2023-04-03T16:18:02;2.40;;;1.27;;
48268;SDS011;34088;52.232;5.196;2023-04-03T16:20:29;3.92;;;1.35;;
48268;SDS011;34088;52.232;5.196;2023-04-03T16:22:56;5.35;;;1.70;;
48268;SDS011;34088;52.232;5.196;2023-04-03T16:25:23;5.13;;;1.50;;
48268;SDS011;34088;52.232;5.196;2023-04-03T16:27:48;4.25;;;1.42;;
48268;SDS011;34088;52.232;5.196;2023-04-03T16:30:14;4.38;;;1.50;;
48268;SDS011;34088;52.232;5.196;2023-04-03T16:32:39;3.67;;;1.40;;
48268;SDS011;34088;52.232;5.196;2023-04-03T16:35:05;4.13;;;1.73;;
48268;SDS011;34088;52.232;5.196;2023-04-03T16:39:56;4.03;;;1.52;;
48268;SDS011;34088;52.232;5.196;2023-04-03T16:42:23;3.33;;;1.40;;
48268;SDS011;34088;52.232;5.196;2023-04-03T16:44:49;3.17;;;1.60;;
48268;SDS011;34088;52.232;5.196;2023-04-03T16:47:15;3.33;;;1.92;;
48268;SDS011;34088;52.232;5.196;2023-04-03T16:49:44;3.63;;;1.50;;
48268;SDS011;34088;52.232;5.196;2023-04-03T16:52:10;5.00;;;1.60;;
48268;SDS011;34088;52.232;5.196;2023-04-03T16:54:35;3.10;;;1.50;;
48268;SDS011;34088;52.232;5.196;2023-04-03T16:59:27;4.18;;;1.50;;
48268;SDS011;34088;52.232;5.196;2023-04-03T17:01:52;4.45;;;1.52;;
48268;SDS011;34088;52.232;5.196;2023-04-03T17:04:18;5.13;;;1.63;;
48268;SDS011;34088;52.232;5.196;2023-04-03T17:06:43;4.13;;;1.48;;
48268;SDS011;34088;52.232;5.196;2023-04-03T17:09:09;8.70;;;4.97;;
48268;SDS011;34088;52.232;5.196;2023-04-03T17:11:35;3.30;;;2.03;;
48268;SDS011;34088;52.232;5.196;2023-04-03T17:14:01;7.00;;;4.65;;
48268;SDS011;34088;52.232;5.196;2023-04-03T17:18:53;4.75;;;2.25;;
48268;SDS011;34088;52.232;5.196;2023-04-03T17:21:19;4.20;;;2.08;;
48268;SDS011;34088;52.232;5.196;2023-04-03T17:23:46;6.50;;;2.45;;
48268;SDS011;34088;52.232;5.196;2023-04-03T17:26:14;9.27;;;6.60;;
48268;SDS011;34088;52.232;5.196;2023-04-03T17:28:40;12.38;;;8.25;;
48268;SDS011;34088;52.232;5.196;2023-04-03T17:31:06;6.82;;;2.55;;
48268;SDS011;34088;52.232;5.196;2023-04-03T17:33:32;4.35;;;1.90;;
48268;SDS011;34088;52.232;5.196;2023-04-03T17:35:59;3.47;;;1.60;;
48268;SDS011;34088;52.232;5.196;2023-04-03T17:38:26;5.40;;;2.25;;
48268;SDS011;34088;52.232;5.196;2023-04-03T17:40:55;4.97;;;2.13;;
48268;SDS011;34088;52.232;5.196;2023-04-03T17:43:21;4.10;;;2.10;;
48268;SDS011;34088;52.232;5.196;2023-04-03T17:45:47;4.38;;;1.77;;
48268;SDS011;34088;52.232;5.196;2023-04-03T17:48:12;5.93;;;2.13;;
48268;SDS011;34088;52.232;5.196;2023-04-03T17:50:38;3.75;;;1.60;;
48268;SDS011;34088;52.232;5.196;2023-04-03T17:53:03;6.25;;;1.80;;
48268;SDS011;34088;52.232;5.196;2023-04-03T17:55:29;3.60;;;1.92;;
48268;SDS011;34088;52.232;5.196;2023-04-03T18:00:20;5.72;;;1.80;;
48268;SDS011;34088;52.232;5.196;2023-04-03T18:02:46;4.07;;;1.75;;
48268;SDS011;34088;52.232;5.196;2023-04-03T18:05:12;6.85;;;1.83;;
48268;SDS011;34088;52.232;5.196;2023-04-03T18:07:37;6.90;;;1.50;;
48268;SDS011;34088;52.232;5.196;2023-04-03T18:10:03;4.28;;;1.63;;
48268;SDS011;34088;52.232;5.196;2023-04-03T18:12:31;3.97;;;2.00;;
48268;SDS011;34088;52.232;5.196;2023-04-03T18:14:57;5.55;;;2.63;;
48268;SDS011;34088;52.232;5.196;2023-04-03T18:17:23;7.53;;;2.75;;
48268;SDS011;34088;52.232;5.196;2023-04-03T18:19:50;5.13;;;2.25;;
48268;SDS011;34088;52.232;5.196;2023-04-03T18:22:16;7.43;;;2.88;;
48268;SDS011;34088;52.232;5.196;2023-04-03T18:24:45;5.75;;;2.30;;
48268;SDS011;34088;52.232;5.196;2023-04-03T18:27:15;7.50;;;2.47;;
48268;SDS011;34088;52.232;5.196;2023-04-03T18:29:44;4.20;;;1.98;;
48268;SDS011;34088;52.232;5.196;2023-04-03T18:32:12;5.53;;;3.03;;
48268;SDS011;34088;52.232;5.196;2023-04-03T18:34:39;5.00;;;2.22;;
48268;SDS011;34088;52.232;5.196;2023-04-03T18:37:05;6.20;;;2.40;;
48268;SDS011;34088;52.232;5.196;2023-04-03T18:39:30;6.18;;;3.15;;
48268;SDS011;34088;52.232;5.196;2023-04-03T18:41:57;4.25;;;2.40;;
48268;SDS011;34088;52.232;5.196;2023-04-03T18:44:23;6.70;;;1.88;;
48268;SDS011;34088;52.232;5.196;2023-04-03T18:46:50;4.95;;;1.75;;
48268;SDS011;34088;52.232;5.196;2023-04-03T18:49:17;4.88;;;2.00;;
48268;SDS011;34088;52.232;5.196;2023-04-03T18:51:44;11.60;;;9.18;;
48268;SDS011;34088;52.232;5.196;2023-04-03T18:56:35;8.98;;;5.95;;
48268;SDS011;34088;52.232;5.196;2023-04-03T18:59:01;7.45;;;2.42;;
48268;SDS011;34088;52.232;5.196;2023-04-03T19:01:27;8.90;;;2.17;;
48268;SDS011;34088;52.232;5.196;2023-04-03T19:03:52;4.35;;;1.88;;
48268;SDS011;34088;52.232;5.196;2023-04-03T19:06:18;4.68;;;2.28;;
48268;SDS011;34088;52.232;5.196;2023-04-03T19:08:44;5.95;;;3.22;;
48268;SDS011;34088;52.232;5.196;2023-04-03T19:13:35;4.45;;;2.50;;
48268;SDS011;34088;52.232;5.196;2023-04-03T19:16:01;5.03;;;2.10;;
48268;SDS011;34088;52.232;5.196;2023-04-03T19:20:56;4.63;;;2.10;;
48268;SDS011;34088;52.232;5.196;2023-04-03T19:23:23;5.18;;;2.50;;
48268;SDS011;34088;52.232;5.196;2023-04-03T19:28:14;5.85;;;2.90;;
48268;SDS011;34088;52.232;5.196;2023-04-03T19:30:40;4.95;;;2.17;;
48268;SDS011;34088;52.232;5.196;2023-04-03T19:35:31;5.03;;;2.40;;
48268;SDS011;34088;52.232;5.196;2023-04-03T19:37:57;7.25;;;3.03;;
48268;SDS011;34088;52.232;5.196;2023-04-03T19:42:49;5.63;;;2.30;;
48268;SDS011;34088;52.232;5.196;2023-04-03T19:45:15;4.70;;;2.55;;
48268;SDS011;34088;52.232;5.196;2023-04-03T19:47:42;3.50;;;2.13;;
48268;SDS011;34088;52.232;5.196;2023-04-03T19:50:08;6.65;;;2.50;;